sensor_id;sensor_type;location;lat;lon;timestamp;P1;durP1;ratioP1;P2;durP2;ratioP2
61204;SDS011;47068;55.780;37.520;2023-04-24T00:00:39;458.55;;;434.45;;
61204;SDS011;47068;55.780;37.520;2023-04-24T00:03:05;438.27;;;414.77;;
61204;SDS011;47068;55.780;37.520;2023-04-24T00:05:32;534.97;;;507.80;;
61204;SDS011;47068;55.780;37.520;2023-04-24T00:07:57;551.70;;;514.83;;
61204;SDS011;47068;55.780;37.520;2023-04-24T00:10:23;620.15;;;575.55;;
61204;SDS011;47068;55.780;37.520;2023-04-24T00:12:48;605.25;;;566.75;;
61204;SDS011;47068;55.780;37.520;2023-04-24T00:15:14;359.73;;;339.90;;
61204;SDS011;47068;55.780;37.520;2023-04-24T00:17:39;526.20;;;492.37;;
61204;SDS011;47068;55.780;37.520;2023-04-24T00:20:05;605.53;;;562.97;;
61204;SDS011;47068;55.780;37.520;2023-04-24T00:22:31;617.07;;;572.40;;
61204;SDS011;47068;55.780;37.520;2023-04-24T00:24:57;556.80;;;516.42;;
61204;SDS011;47068;55.780;37.520;2023-04-24T00:27:22;544.97;;;505.80;;
61204;SDS011;47068;55.780;37.520;2023-04-24T00:29:48;609.67;;;566.53;;
61204;SDS011;47068;55.780;37.520;2023-04-24T00:32:14;546.72;;;503.55;;
61204;SDS011;47068;55.780;37.520;2023-04-24T00:34:40;614.00;;;559.55;;
61204;SDS011;47068;55.780;37.520;2023-04-24T00:39:32;533.73;;;483.43;;
61204;SDS011;47068;55.780;37.520;2023-04-24T00:41:57;535.75;;;490.67;;
61204;SDS011;47068;55.780;37.520;2023-04-24T00:44:23;564.20;;;504.95;;
61204;SDS011;47068;55.780;37.520;2023-04-24T00:46:48;609.88;;;548.50;;
61204;SDS011;47068;55.780;37.520;2023-04-24T00:49:20;554.03;;;497.13;;
61204;SDS011;47068;55.780;37.520;2023-04-24T00:51:48;557.87;;;499.33;;
61204;SDS011;47068;55.780;37.520;2023-04-24T00:54:16;600.60;;;545.87;;
61204;SDS011;47068;55.780;37.520;2023-04-24T00:56:42;600.60;;;548.65;;
61204;SDS011;47068;55.780;37.520;2023-04-24T00:59:09;614.70;;;553.53;;
61204;SDS011;47068;55.780;37.520;2023-04-24T01:01:35;549.85;;;503.90;;
61204;SDS011;47068;55.780;37.520;2023-04-24T01:04:01;615.42;;;550.67;;
61204;SDS011;47068;55.780;37.520;2023-04-24T01:06:27;592.40;;;537.45;;
61204;SDS011;47068;55.780;37.520;2023-04-24T01:08:56;518.10;;;491.27;;
61204;SDS011;47068;55.780;37.520;2023-04-24T01:11:24;270.15;;;253.65;;
61204;SDS011;47068;55.780;37.520;2023-04-24T01:13:50;233.90;;;219.82;;
61204;SDS011;47068;55.780;37.520;2023-04-24T01:16:16;84.35;;;78.85;;
61204;SDS011;47068;55.780;37.520;2023-04-24T01:18:42;18.23;;;9.40;;
61204;SDS011;47068;55.780;37.520;2023-04-24T01:23:36;141.73;;;132.88;;
61204;SDS011;47068;55.780;37.520;2023-04-24T01:26:02;154.85;;;145.77;;
61204;SDS011;47068;55.780;37.520;2023-04-24T01:28:27;10.10;;;9.18;;
61204;SDS011;47068;55.780;37.520;2023-04-24T01:30:53;183.95;;;172.80;;
61204;SDS011;47068;55.780;37.520;2023-04-24T01:33:20;124.30;;;115.78;;
61204;SDS011;47068;55.780;37.520;2023-04-24T01:35:46;211.73;;;198.18;;
61204;SDS011;47068;55.780;37.520;2023-04-24T01:38:13;105.00;;;97.65;;
61204;SDS011;47068;55.780;37.520;2023-04-24T01:40:38;155.93;;;146.27;;
61204;SDS011;47068;55.780;37.520;2023-04-24T01:43:04;238.18;;;224.40;;
61204;SDS011;47068;55.780;37.520;2023-04-24T01:45:29;206.05;;;193.50;;
61204;SDS011;47068;55.780;37.520;2023-04-24T01:47:55;93.25;;;87.03;;
61204;SDS011;47068;55.780;37.520;2023-04-24T01:50:21;112.68;;;103.53;;
61204;SDS011;47068;55.780;37.520;2023-04-24T01:52:47;79.38;;;73.70;;
61204;SDS011;47068;55.780;37.520;2023-04-24T01:55:12;65.32;;;60.58;;
61204;SDS011;47068;55.780;37.520;2023-04-24T01:57:38;81.27;;;75.80;;
61204;SDS011;47068;55.780;37.520;2023-04-24T02:00:03;97.93;;;90.65;;
61204;SDS011;47068;55.780;37.520;2023-04-24T02:04:55;87.88;;;81.65;;
61204;SDS011;47068;55.780;37.520;2023-04-24T02:07:21;105.18;;;98.32;;
61204;SDS011;47068;55.780;37.520;2023-04-24T02:09:47;145.75;;;134.95;;
61204;SDS011;47068;55.780;37.520;2023-04-24T02:12:13;130.10;;;121.68;;
61204;SDS011;47068;55.780;37.520;2023-04-24T02:14:38;118.68;;;111.07;;
61204;SDS011;47068;55.780;37.520;2023-04-24T02:17:04;94.72;;;88.22;;
61204;SDS011;47068;55.780;37.520;2023-04-24T02:19:30;113.65;;;105.88;;
61204;SDS011;47068;55.780;37.520;2023-04-24T02:21:55;91.68;;;85.35;;
61204;SDS011;47068;55.780;37.520;2023-04-24T02:24:21;147.88;;;138.45;;
61204;SDS011;47068;55.780;37.520;2023-04-24T02:26:46;161.65;;;151.38;;
61204;SDS011;47068;55.780;37.520;2023-04-24T02:29:12;185.90;;;174.43;;
61204;SDS011;47068;55.780;37.520;2023-04-24T02:31:37;164.37;;;153.90;;
61204;SDS011;47068;55.780;37.520;2023-04-24T02:34:03;236.37;;;223.20;;
61204;SDS011;47068;55.780;37.520;2023-04-24T02:36:28;163.75;;;153.32;;
61204;SDS011;47068;55.780;37.520;2023-04-24T02:38:54;149.32;;;139.00;;
61204;SDS011;47068;55.780;37.520;2023-04-24T02:41:22;202.03;;;190.77;;
61204;SDS011;47068;55.780;37.520;2023-04-24T02:43:47;251.93;;;238.20;;
61204;SDS011;47068;55.780;37.520;2023-04-24T02:46:13;216.10;;;202.30;;
61204;SDS011;47068;55.780;37.520;2023-04-24T02:48:38;215.73;;;203.50;;
61204;SDS011;47068;55.780;37.520;2023-04-24T02:51:04;242.32;;;228.85;;
61204;SDS011;47068;55.780;37.520;2023-04-24T02:53:29;270.67;;;255.80;;
61204;SDS011;47068;55.780;37.520;2023-04-24T02:55:55;359.92;;;341.65;;
61204;SDS011;47068;55.780;37.520;2023-04-24T02:58:21;255.32;;;241.43;;
61204;SDS011;47068;55.780;37.520;2023-04-24T03:00:47;323.23;;;306.60;;
61204;SDS011;47068;55.780;37.520;2023-04-24T03:03:13;315.77;;;299.05;;
61204;SDS011;47068;55.780;37.520;2023-04-24T03:05:40;485.23;;;461.65;;
61204;SDS011;47068;55.780;37.520;2023-04-24T03:08:05;317.08;;;300.00;;
61204;SDS011;47068;55.780;37.520;2023-04-24T03:10:31;321.58;;;304.60;;
61204;SDS011;47068;55.780;37.520;2023-04-24T03:12:57;333.08;;;315.65;;
61204;SDS011;47068;55.780;37.520;2023-04-24T03:15:22;248.07;;;233.82;;
61204;SDS011;47068;55.780;37.520;2023-04-24T03:17:48;314.48;;;298.08;;
61204;SDS011;47068;55.780;37.520;2023-04-24T03:20:13;467.55;;;443.85;;
61204;SDS011;47068;55.780;37.520;2023-04-24T03:22:39;529.78;;;502.15;;
61204;SDS011;47068;55.780;37.520;2023-04-24T03:25:05;475.65;;;450.60;;
61204;SDS011;47068;55.780;37.520;2023-04-24T03:27:31;515.40;;;489.27;;
61204;SDS011;47068;55.780;37.520;2023-04-24T03:29:56;571.38;;;539.92;;
61204;SDS011;47068;55.780;37.520;2023-04-24T03:32:22;496.27;;;469.63;;
61204;SDS011;47068;55.780;37.520;2023-04-24T03:34:48;530.20;;;503.27;;
61204;SDS011;47068;55.780;37.520;2023-04-24T03:37:14;596.03;;;563.13;;
61204;SDS011;47068;55.780;37.520;2023-04-24T03:39:40;512.80;;;484.05;;
61204;SDS011;47068;55.780;37.520;2023-04-24T03:42:05;380.20;;;359.90;;
61204;SDS011;47068;55.780;37.520;2023-04-24T03:44:31;393.35;;;372.02;;
61204;SDS011;47068;55.780;37.520;2023-04-24T03:46:57;476.83;;;451.33;;
61204;SDS011;47068;55.780;37.520;2023-04-24T03:49:23;509.13;;;482.73;;
61204;SDS011;47068;55.780;37.520;2023-04-24T03:51:49;580.92;;;545.15;;
61204;SDS011;47068;55.780;37.520;2023-04-24T03:54:14;638.55;;;601.30;;
61204;SDS011;47068;55.780;37.520;2023-04-24T03:56:39;587.13;;;549.73;;
61204;SDS011;47068;55.780;37.520;2023-04-24T03:59:05;605.38;;;567.40;;
61204;SDS011;47068;55.780;37.520;2023-04-24T04:01:30;677.60;;;630.70;;
61204;SDS011;47068;55.780;37.520;2023-04-24T04:03:56;618.05;;;573.00;;
61204;SDS011;47068;55.780;37.520;2023-04-24T04:06:21;615.33;;;570.88;;
61204;SDS011;47068;55.780;37.520;2023-04-24T04:08:47;630.40;;;589.03;;
61204;SDS011;47068;55.780;37.520;2023-04-24T04:11:12;665.42;;;625.67;;
61204;SDS011;47068;55.780;37.520;2023-04-24T04:13:38;594.53;;;561.97;;
61204;SDS011;47068;55.780;37.520;2023-04-24T04:16:03;371.33;;;350.25;;
61204;SDS011;47068;55.780;37.520;2023-04-24T04:18:29;406.15;;;383.50;;
61204;SDS011;47068;55.780;37.520;2023-04-24T04:20:55;508.35;;;479.40;;
61204;SDS011;47068;55.780;37.520;2023-04-24T04:23:22;521.83;;;493.30;;
61204;SDS011;47068;55.780;37.520;2023-04-24T04:25:47;601.25;;;567.83;;
61204;SDS011;47068;55.780;37.520;2023-04-24T04:28:13;658.42;;;615.53;;
61204;SDS011;47068;55.780;37.520;2023-04-24T04:30:38;654.17;;;612.85;;
61204;SDS011;47068;55.780;37.520;2023-04-24T04:35:30;626.97;;;588.17;;
61204;SDS011;47068;55.780;37.520;2023-04-24T04:37:56;702.08;;;657.35;;
61204;SDS011;47068;55.780;37.520;2023-04-24T04:40:23;699.28;;;656.35;;
61204;SDS011;47068;55.780;37.520;2023-04-24T04:42:49;616.72;;;581.78;;
61204;SDS011;47068;55.780;37.520;2023-04-24T04:45:18;617.45;;;582.00;;
61204;SDS011;47068;55.780;37.520;2023-04-24T04:47:43;667.28;;;630.88;;
61204;SDS011;47068;55.780;37.520;2023-04-24T04:50:09;387.33;;;364.65;;
61204;SDS011;47068;55.780;37.520;2023-04-24T04:52:35;463.02;;;436.75;;
61204;SDS011;47068;55.780;37.520;2023-04-24T04:55:01;493.70;;;466.15;;
61204;SDS011;47068;55.780;37.520;2023-04-24T04:57:27;385.65;;;362.75;;
61204;SDS011;47068;55.780;37.520;2023-04-24T04:59:52;419.05;;;393.80;;
61204;SDS011;47068;55.780;37.520;2023-04-24T05:02:18;200.27;;;185.18;;
61204;SDS011;47068;55.780;37.520;2023-04-24T05:04:43;149.18;;;137.80;;
61204;SDS011;47068;55.780;37.520;2023-04-24T05:07:09;151.57;;;140.07;;
61204;SDS011;47068;55.780;37.520;2023-04-24T05:09:34;145.98;;;133.90;;
61204;SDS011;47068;55.780;37.520;2023-04-24T05:11:59;203.35;;;187.13;;
61204;SDS011;47068;55.780;37.520;2023-04-24T05:14:25;329.02;;;306.73;;
61204;SDS011;47068;55.780;37.520;2023-04-24T05:16:50;587.13;;;553.00;;
61204;SDS011;47068;55.780;37.520;2023-04-24T05:19:16;384.08;;;357.77;;
61204;SDS011;47068;55.780;37.520;2023-04-24T05:24:07;716.00;;;670.03;;
61204;SDS011;47068;55.780;37.520;2023-04-24T05:26:32;196.95;;;178.90;;
61204;SDS011;47068;55.780;37.520;2023-04-24T05:28:58;43.38;;;39.05;;
61204;SDS011;47068;55.780;37.520;2023-04-24T05:31:25;94.60;;;85.32;;
61204;SDS011;47068;55.780;37.520;2023-04-24T05:33:50;261.23;;;237.35;;
61204;SDS011;47068;55.780;37.520;2023-04-24T05:36:16;302.38;;;277.15;;
61204;SDS011;47068;55.780;37.520;2023-04-24T05:38:41;57.50;;;52.47;;
61204;SDS011;47068;55.780;37.520;2023-04-24T05:41:07;45.80;;;41.20;;
61204;SDS011;47068;55.780;37.520;2023-04-24T05:43:32;67.80;;;61.20;;
61204;SDS011;47068;55.780;37.520;2023-04-24T05:45:57;247.95;;;226.05;;
61204;SDS011;47068;55.780;37.520;2023-04-24T05:48:23;334.60;;;306.80;;
61204;SDS011;47068;55.780;37.520;2023-04-24T05:50:49;337.10;;;309.60;;
61204;SDS011;47068;55.780;37.520;2023-04-24T05:53:14;359.75;;;330.77;;
61204;SDS011;47068;55.780;37.520;2023-04-24T05:55:40;312.83;;;286.13;;
61204;SDS011;47068;55.780;37.520;2023-04-24T05:58:06;313.25;;;286.30;;
61204;SDS011;47068;55.780;37.520;2023-04-24T06:00:31;180.40;;;162.65;;
61204;SDS011;47068;55.780;37.520;2023-04-24T06:02:59;203.95;;;185.18;;
61204;SDS011;47068;55.780;37.520;2023-04-24T06:05:25;329.05;;;299.65;;
61204;SDS011;47068;55.780;37.520;2023-04-24T06:07:51;36.50;;;32.95;;
61204;SDS011;47068;55.780;37.520;2023-04-24T06:10:17;55.08;;;49.88;;
61204;SDS011;47068;55.780;37.520;2023-04-24T06:12:42;73.93;;;66.65;;
61204;SDS011;47068;55.780;37.520;2023-04-24T06:15:08;29.65;;;26.58;;
61204;SDS011;47068;55.780;37.520;2023-04-24T06:17:34;306.27;;;281.67;;
61204;SDS011;47068;55.780;37.520;2023-04-24T06:19:59;140.60;;;125.60;;
61204;SDS011;47068;55.780;37.520;2023-04-24T06:22:25;155.18;;;140.75;;
61204;SDS011;47068;55.780;37.520;2023-04-24T06:24:50;371.77;;;340.17;;
61204;SDS011;47068;55.780;37.520;2023-04-24T06:27:16;54.47;;;45.03;;
61204;SDS011;47068;55.780;37.520;2023-04-24T06:29:41;134.05;;;115.80;;
61204;SDS011;47068;55.780;37.520;2023-04-24T06:32:07;143.23;;;129.15;;
61204;SDS011;47068;55.780;37.520;2023-04-24T06:34:32;15.10;;;7.43;;
61204;SDS011;47068;55.780;37.520;2023-04-24T06:36:59;8.88;;;7.32;;
61204;SDS011;47068;55.780;37.520;2023-04-24T06:39:25;10.85;;;4.30;;
61204;SDS011;47068;55.780;37.520;2023-04-24T06:41:53;8.05;;;6.55;;
61204;SDS011;47068;55.780;37.520;2023-04-24T06:44:18;9.52;;;4.07;;
61204;SDS011;47068;55.780;37.520;2023-04-24T06:46:44;7.22;;;4.10;;
61204;SDS011;47068;55.780;37.520;2023-04-24T06:49:10;9.25;;;8.25;;
61204;SDS011;47068;55.780;37.520;2023-04-24T06:51:35;24.55;;;22.25;;
61204;SDS011;47068;55.780;37.520;2023-04-24T06:54:01;22.30;;;15.82;;
61204;SDS011;47068;55.780;37.520;2023-04-24T06:56:26;15.80;;;5.18;;
61204;SDS011;47068;55.780;37.520;2023-04-24T06:58:54;9.30;;;5.28;;
61204;SDS011;47068;55.780;37.520;2023-04-24T07:01:24;5.95;;;3.95;;
61204;SDS011;47068;55.780;37.520;2023-04-24T07:03:50;14.32;;;12.35;;
61204;SDS011;47068;55.780;37.520;2023-04-24T07:06:15;7.57;;;3.60;;
61204;SDS011;47068;55.780;37.520;2023-04-24T07:08:43;7.72;;;3.42;;
61204;SDS011;47068;55.780;37.520;2023-04-24T07:11:09;5.68;;;3.40;;
61204;SDS011;47068;55.780;37.520;2023-04-24T07:13:34;12.18;;;3.85;;
61204;SDS011;47068;55.780;37.520;2023-04-24T07:16:00;6.95;;;3.30;;
61204;SDS011;47068;55.780;37.520;2023-04-24T07:18:26;6.35;;;3.30;;
61204;SDS011;47068;55.780;37.520;2023-04-24T07:20:51;6.53;;;3.60;;
61204;SDS011;47068;55.780;37.520;2023-04-24T07:23:17;4.20;;;2.72;;
61204;SDS011;47068;55.780;37.520;2023-04-24T07:25:43;5.93;;;3.45;;
61204;SDS011;47068;55.780;37.520;2023-04-24T07:28:09;376.75;;;342.15;;
61204;SDS011;47068;55.780;37.520;2023-04-24T07:30:34;405.38;;;363.95;;
61204;SDS011;47068;55.780;37.520;2023-04-24T07:33:00;252.63;;;225.82;;
61204;SDS011;47068;55.780;37.520;2023-04-24T07:35:26;121.90;;;108.63;;
61204;SDS011;47068;55.780;37.520;2023-04-24T07:37:54;11.35;;;10.25;;
61204;SDS011;47068;55.780;37.520;2023-04-24T07:40:20;94.80;;;85.03;;
61204;SDS011;47068;55.780;37.520;2023-04-24T07:42:47;69.70;;;62.08;;
61204;SDS011;47068;55.780;37.520;2023-04-24T07:45:15;149.65;;;134.75;;
61204;SDS011;47068;55.780;37.520;2023-04-24T07:47:42;30.33;;;26.42;;
61204;SDS011;47068;55.780;37.520;2023-04-24T07:50:09;5.80;;;2.70;;
61204;SDS011;47068;55.780;37.520;2023-04-24T07:52:35;9.88;;;9.02;;
61204;SDS011;47068;55.780;37.520;2023-04-24T07:55:00;6.93;;;3.50;;
61204;SDS011;47068;55.780;37.520;2023-04-24T07:57:27;7.43;;;3.75;;
61204;SDS011;47068;55.780;37.520;2023-04-24T07:59:53;12.35;;;3.60;;
61204;SDS011;47068;55.780;37.520;2023-04-24T08:02:19;8.10;;;7.32;;
61204;SDS011;47068;55.780;37.520;2023-04-24T08:04:46;22.83;;;20.67;;
61204;SDS011;47068;55.780;37.520;2023-04-24T08:07:12;9.00;;;8.07;;
61204;SDS011;47068;55.780;37.520;2023-04-24T08:09:38;10.55;;;9.27;;
61204;SDS011;47068;55.780;37.520;2023-04-24T08:12:03;12.10;;;8.20;;
61204;SDS011;47068;55.780;37.520;2023-04-24T08:14:29;5.47;;;4.13;;
61204;SDS011;47068;55.780;37.520;2023-04-24T08:16:54;10.30;;;2.60;;
61204;SDS011;47068;55.780;37.520;2023-04-24T08:19:21;4.43;;;2.80;;
61204;SDS011;47068;55.780;37.520;2023-04-24T08:21:46;4.57;;;3.08;;
61204;SDS011;47068;55.780;37.520;2023-04-24T08:24:15;4.13;;;2.17;;
61204;SDS011;47068;55.780;37.520;2023-04-24T08:26:40;4.25;;;3.08;;
61204;SDS011;47068;55.780;37.520;2023-04-24T08:29:06;6.13;;;3.83;;
61204;SDS011;47068;55.780;37.520;2023-04-24T08:31:32;5.40;;;3.67;;
61204;SDS011;47068;55.780;37.520;2023-04-24T08:33:57;277.33;;;253.45;;
61204;SDS011;47068;55.780;37.520;2023-04-24T08:36:25;115.30;;;105.47;;
61204;SDS011;47068;55.780;37.520;2023-04-24T08:38:51;34.72;;;31.85;;
61204;SDS011;47068;55.780;37.520;2023-04-24T08:41:17;41.70;;;38.47;;
61204;SDS011;47068;55.780;37.520;2023-04-24T08:43:43;28.48;;;26.00;;
61204;SDS011;47068;55.780;37.520;2023-04-24T08:46:11;324.10;;;298.00;;
61204;SDS011;47068;55.780;37.520;2023-04-24T08:48:38;496.40;;;460.67;;
61204;SDS011;47068;55.780;37.520;2023-04-24T08:51:08;171.27;;;156.55;;
61204;SDS011;47068;55.780;37.520;2023-04-24T08:53:34;198.40;;;181.20;;
61204;SDS011;47068;55.780;37.520;2023-04-24T08:56:01;306.58;;;282.27;;
61204;SDS011;47068;55.780;37.520;2023-04-24T08:58:32;581.33;;;541.72;;
61204;SDS011;47068;55.780;37.520;2023-04-24T09:00:58;220.52;;;202.88;;
61204;SDS011;47068;55.780;37.520;2023-04-24T09:03:24;413.42;;;382.58;;
61204;SDS011;47068;55.780;37.520;2023-04-24T09:05:52;20.38;;;18.55;;
61204;SDS011;47068;55.780;37.520;2023-04-24T09:08:20;6.72;;;5.57;;
61204;SDS011;47068;55.780;37.520;2023-04-24T09:10:49;5.93;;;2.88;;
61204;SDS011;47068;55.780;37.520;2023-04-24T09:13:14;5.80;;;4.07;;
61204;SDS011;47068;55.780;37.520;2023-04-24T09:15:40;10.40;;;9.52;;
61204;SDS011;47068;55.780;37.520;2023-04-24T09:18:06;7.32;;;2.80;;
61204;SDS011;47068;55.780;37.520;2023-04-24T09:20:32;3.80;;;2.30;;
61204;SDS011;47068;55.780;37.520;2023-04-24T09:22:58;80.53;;;73.20;;
61204;SDS011;47068;55.780;37.520;2023-04-24T09:25:32;62.17;;;56.92;;
61204;SDS011;47068;55.780;37.520;2023-04-24T09:28:02;53.22;;;48.45;;
61204;SDS011;47068;55.780;37.520;2023-04-24T09:30:29;10.55;;;9.68;;
61204;SDS011;47068;55.780;37.520;2023-04-24T09:35:35;16.02;;;14.50;;
61204;SDS011;47068;55.780;37.520;2023-04-24T09:40:26;310.27;;;288.98;;
61204;SDS011;47068;55.780;37.520;2023-04-24T09:45:18;259.27;;;241.02;;
61204;SDS011;47068;55.780;37.520;2023-04-24T09:50:16;192.43;;;178.77;;
61204;SDS011;47068;55.780;37.520;2023-04-24T09:52:45;17.10;;;15.50;;
61204;SDS011;47068;55.780;37.520;2023-04-24T09:55:39;11.38;;;10.25;;
61204;SDS011;47068;55.780;37.520;2023-04-24T09:58:09;11.52;;;4.65;;
61204;SDS011;47068;55.780;37.520;2023-04-24T10:03:01;11.90;;;10.63;;
61204;SDS011;47068;55.780;37.520;2023-04-24T10:05:32;6.07;;;3.80;;
61204;SDS011;47068;55.780;37.520;2023-04-24T10:08:09;6.53;;;4.70;;
61204;SDS011;47068;55.780;37.520;2023-04-24T10:10:37;6.97;;;3.85;;
61204;SDS011;47068;55.780;37.520;2023-04-24T10:13:04;6.22;;;5.63;;
61204;SDS011;47068;55.780;37.520;2023-04-24T10:15:30;2.95;;;2.10;;
61204;SDS011;47068;55.780;37.520;2023-04-24T10:17:57;8.50;;;4.28;;
61204;SDS011;47068;55.780;37.520;2023-04-24T10:20:25;6.28;;;3.28;;
61204;SDS011;47068;55.780;37.520;2023-04-24T10:23:07;12.00;;;10.93;;
61204;SDS011;47068;55.780;37.520;2023-04-24T10:28:00;5.57;;;5.00;;
61204;SDS011;47068;55.780;37.520;2023-04-24T10:30:27;6.00;;;5.43;;
61204;SDS011;47068;55.780;37.520;2023-04-24T10:33:00;6.00;;;4.07;;
61204;SDS011;47068;55.780;37.520;2023-04-24T10:35:27;8.07;;;7.30;;
61204;SDS011;47068;55.780;37.520;2023-04-24T10:37:56;44.33;;;40.22;;
61204;SDS011;47068;55.780;37.520;2023-04-24T10:40:30;11.55;;;10.45;;
61204;SDS011;47068;55.780;37.520;2023-04-24T10:43:03;17.85;;;16.08;;
61204;SDS011;47068;55.780;37.520;2023-04-24T10:45:36;5.85;;;3.63;;
61204;SDS011;47068;55.780;37.520;2023-04-24T10:48:02;9.30;;;8.55;;
61204;SDS011;47068;55.780;37.520;2023-04-24T10:50:42;88.30;;;81.05;;
61204;SDS011;47068;55.780;37.520;2023-04-24T10:53:16;17.15;;;15.40;;
61204;SDS011;47068;55.780;37.520;2023-04-24T10:55:44;16.13;;;14.77;;
61204;SDS011;47068;55.780;37.520;2023-04-24T10:58:11;3.72;;;2.15;;
61204;SDS011;47068;55.780;37.520;2023-04-24T11:00:37;10.48;;;9.45;;
61204;SDS011;47068;55.780;37.520;2023-04-24T11:03:05;92.55;;;85.25;;
61204;SDS011;47068;55.780;37.520;2023-04-24T11:05:51;123.05;;;113.03;;
61204;SDS011;47068;55.780;37.520;2023-04-24T11:08:32;280.15;;;258.70;;
61204;SDS011;47068;55.780;37.520;2023-04-24T11:11:03;387.35;;;358.13;;
61204;SDS011;47068;55.780;37.520;2023-04-24T11:19:09;4.15;;;1.90;;
61204;SDS011;47068;55.780;37.520;2023-04-24T11:21:45;7.28;;;3.35;;
61204;SDS011;47068;55.780;37.520;2023-04-24T11:27:01;8.05;;;7.28;;
61204;SDS011;47068;55.780;37.520;2023-04-24T11:32:26;9.35;;;8.35;;
61204;SDS011;47068;55.780;37.520;2023-04-24T11:34:59;50.50;;;46.08;;
61204;SDS011;47068;55.780;37.520;2023-04-24T11:37:36;14.98;;;13.40;;
61204;SDS011;47068;55.780;37.520;2023-04-24T11:40:04;10.85;;;9.77;;
61204;SDS011;47068;55.780;37.520;2023-04-24T11:42:34;8.52;;;6.13;;
61204;SDS011;47068;55.780;37.520;2023-04-24T11:45:01;13.32;;;12.15;;
61204;SDS011;47068;55.780;37.520;2023-04-24T11:49:56;5.07;;;3.72;;
61204;SDS011;47068;55.780;37.520;2023-04-24T11:54:47;7.72;;;3.58;;
61204;SDS011;47068;55.780;37.520;2023-04-24T11:57:18;5.85;;;5.10;;
61204;SDS011;47068;55.780;37.520;2023-04-24T11:59:45;8.68;;;4.50;;
61204;SDS011;47068;55.780;37.520;2023-04-24T12:02:32;10.40;;;9.45;;
61204;SDS011;47068;55.780;37.520;2023-04-24T12:04:57;7.47;;;6.22;;
61204;SDS011;47068;55.780;37.520;2023-04-24T12:09:58;6.95;;;5.97;;
61204;SDS011;47068;55.780;37.520;2023-04-24T12:12:27;5.28;;;3.55;;
61204;SDS011;47068;55.780;37.520;2023-04-24T12:14:54;3.33;;;2.25;;
61204;SDS011;47068;55.780;37.520;2023-04-24T12:17:25;12.45;;;2.78;;
61204;SDS011;47068;55.780;37.520;2023-04-24T12:19:51;6.63;;;2.80;;
61204;SDS011;47068;55.780;37.520;2023-04-24T12:24:58;6.93;;;4.63;;
61204;SDS011;47068;55.780;37.520;2023-04-24T12:27:26;10.32;;;6.57;;
61204;SDS011;47068;55.780;37.520;2023-04-24T12:29:55;4.80;;;3.58;;
61204;SDS011;47068;55.780;37.520;2023-04-24T12:32:22;7.32;;;3.20;;
61204;SDS011;47068;55.780;37.520;2023-04-24T12:37:15;25.23;;;12.63;;
61204;SDS011;47068;55.780;37.520;2023-04-24T12:42:10;17.48;;;15.70;;
61204;SDS011;47068;55.780;37.520;2023-04-24T12:44:36;24.50;;;22.65;;
61204;SDS011;47068;55.780;37.520;2023-04-24T12:49:29;29.65;;;27.50;;
61204;SDS011;47068;55.780;37.520;2023-04-24T12:51:55;64.65;;;59.63;;
61204;SDS011;47068;55.780;37.520;2023-04-24T12:56:47;26.58;;;24.42;;
61204;SDS011;47068;55.780;37.520;2023-04-24T13:01:38;8.13;;;7.25;;
61204;SDS011;47068;55.780;37.520;2023-04-24T13:06:30;14.10;;;12.88;;
61204;SDS011;47068;55.780;37.520;2023-04-24T13:08:56;13.98;;;12.57;;
61204;SDS011;47068;55.780;37.520;2023-04-24T13:11:23;10.07;;;9.13;;
61204;SDS011;47068;55.780;37.520;2023-04-24T13:16:14;6.60;;;5.97;;
61204;SDS011;47068;55.780;37.520;2023-04-24T13:21:05;5.30;;;4.43;;
61204;SDS011;47068;55.780;37.520;2023-04-24T13:25:56;5.28;;;2.72;;
61204;SDS011;47068;55.780;37.520;2023-04-24T13:28:22;4.68;;;2.33;;
61204;SDS011;47068;55.780;37.520;2023-04-24T13:30:49;12.57;;;5.35;;
61204;SDS011;47068;55.780;37.520;2023-04-24T13:35:41;4.53;;;3.58;;
61204;SDS011;47068;55.780;37.520;2023-04-24T13:38:06;7.60;;;6.97;;
61204;SDS011;47068;55.780;37.520;2023-04-24T13:42:58;15.93;;;14.55;;
61204;SDS011;47068;55.780;37.520;2023-04-24T13:47:53;8.43;;;4.78;;
61204;SDS011;47068;55.780;37.520;2023-04-24T13:50:19;7.15;;;5.80;;
61204;SDS011;47068;55.780;37.520;2023-04-24T13:52:45;13.27;;;12.13;;
61204;SDS011;47068;55.780;37.520;2023-04-24T13:57:36;15.27;;;13.80;;
61204;SDS011;47068;55.780;37.520;2023-04-24T14:02:28;12.27;;;11.30;;
61204;SDS011;47068;55.780;37.520;2023-04-24T14:07:20;40.75;;;37.20;;
61204;SDS011;47068;55.780;37.520;2023-04-24T14:12:11;36.83;;;33.85;;
61204;SDS011;47068;55.780;37.520;2023-04-24T14:17:01;16.08;;;14.65;;
61204;SDS011;47068;55.780;37.520;2023-04-24T14:21:52;19.23;;;17.52;;
61204;SDS011;47068;55.780;37.520;2023-04-24T14:24:20;69.03;;;63.35;;
61204;SDS011;47068;55.780;37.520;2023-04-24T14:29:11;173.65;;;158.57;;
61204;SDS011;47068;55.780;37.520;2023-04-24T14:31:36;91.57;;;83.88;;
61204;SDS011;47068;55.780;37.520;2023-04-24T14:36:27;373.95;;;347.85;;
61204;SDS011;47068;55.780;37.520;2023-04-24T14:41:18;316.70;;;294.67;;
61204;SDS011;47068;55.780;37.520;2023-04-24T14:46:09;589.25;;;553.72;;
61204;SDS011;47068;55.780;37.520;2023-04-24T14:48:34;630.30;;;586.05;;
61204;SDS011;47068;55.780;37.520;2023-04-24T14:53:25;440.65;;;407.10;;
61204;SDS011;47068;55.780;37.520;2023-04-24T14:58:16;65.03;;;60.20;;
61204;SDS011;47068;55.780;37.520;2023-04-24T15:03:07;100.63;;;92.03;;
61204;SDS011;47068;55.780;37.520;2023-04-24T15:05:33;158.82;;;146.18;;
61204;SDS011;47068;55.780;37.520;2023-04-24T15:07:58;54.47;;;50.47;;
61204;SDS011;47068;55.780;37.520;2023-04-24T15:10:24;72.25;;;66.55;;
61204;SDS011;47068;55.780;37.520;2023-04-24T15:12:50;200.23;;;184.57;;
61204;SDS011;47068;55.780;37.520;2023-04-24T15:15:16;214.25;;;198.75;;
61204;SDS011;47068;55.780;37.520;2023-04-24T15:17:42;179.18;;;165.23;;
61204;SDS011;47068;55.780;37.520;2023-04-24T15:20:07;123.80;;;113.78;;
61204;SDS011;47068;55.780;37.520;2023-04-24T15:22:33;120.20;;;110.10;;
61204;SDS011;47068;55.780;37.520;2023-04-24T15:24:59;209.82;;;193.88;;
61204;SDS011;47068;55.780;37.520;2023-04-24T15:27:26;395.13;;;369.00;;
61204;SDS011;47068;55.780;37.520;2023-04-24T15:29:51;576.47;;;542.00;;
61204;SDS011;47068;55.780;37.520;2023-04-24T15:32:18;682.90;;;643.92;;
61204;SDS011;47068;55.780;37.520;2023-04-24T15:34:44;735.45;;;687.20;;
61204;SDS011;47068;55.780;37.520;2023-04-24T15:39:34;551.00;;;518.40;;
61204;SDS011;47068;55.780;37.520;2023-04-24T15:44:25;748.58;;;702.72;;
61204;SDS011;47068;55.780;37.520;2023-04-24T15:46:51;792.55;;;746.88;;
61204;SDS011;47068;55.780;37.520;2023-04-24T15:49:17;780.00;;;729.58;;
61204;SDS011;47068;55.780;37.520;2023-04-24T15:51:42;659.20;;;620.05;;